createdAt,value
2023-04-17T00:01:18.233Z,45.70
2023-04-17T00:03:47.403Z,46.03
2023-04-17T00:06:16.495Z,46.27
2023-04-17T00:08:44.679Z,45.40
2023-04-17T00:11:12.942Z,44.67
2023-04-17T00:13:44.032Z,46.87
2023-04-17T00:16:13.806Z,46.07
2023-04-17T00:18:42.552Z,47.70
2023-04-17T00:21:10.596Z,46.90
2023-04-17T00:23:38.859Z,47.03
2023-04-17T00:26:06.872Z,48.07
2023-04-17T00:28:34.897Z,49.03
2023-04-17T00:31:04.702Z,48.80
2023-04-17T00:33:33.384Z,48.23
2023-04-17T00:36:01.574Z,49.30
2023-04-17T00:38:29.651Z,49.27
2023-04-17T00:40:57.797Z,49.53
2023-04-17T00:43:25.893Z,49.03
2023-04-17T00:45:55.112Z,50.43
2023-04-17T00:48:25.195Z,50.07
2023-04-17T00:50:55.485Z,50.60
2023-04-17T00:53:24.024Z,51.87
2023-04-17T00:55:53.210Z,50.77
2023-04-17T00:58:22.209Z,50.43
2023-04-17T01:00:50.822Z,51.37
2023-04-17T01:03:19.088Z,50.90
2023-04-17T01:05:52.424Z,49.93
2023-04-17T01:08:20.889Z,49.73
2023-04-17T01:10:49.196Z,50.77
2023-04-17T01:13:17.340Z,51.23
2023-04-17T01:15:47.112Z,51.80
2023-04-17T01:18:15.342Z,52.87
2023-04-17T01:20:43.428Z,52.63
2023-04-17T01:23:12.884Z,53.87
2023-04-17T01:25:42.672Z,52.43
2023-04-17T01:28:10.850Z,52.50
2023-04-17T01:30:39.063Z,52.20
2023-04-17T01:33:09.449Z,51.57
2023-04-17T01:35:38.026Z,51.53
2023-04-17T01:38:06.217Z,52.13
2023-04-17T01:40:34.339Z,49.97
2023-04-17T01:43:03.761Z,51.70
2023-04-17T01:45:32.003Z,50.97
2023-04-17T01:48:01.021Z,50.03
2023-04-17T01:50:29.236Z,51.30
2023-04-17T01:52:57.336Z,51.40
2023-04-17T01:55:25.457Z,52.07
2023-04-17T01:57:53.513Z,52.23
2023-04-17T02:00:23.785Z,53.83
2023-04-17T02:02:51.995Z,52.27
2023-04-17T02:05:20.299Z,53.80
2023-04-17T02:07:50.895Z,54.40
2023-04-17T02:10:20.068Z,54.33
2023-04-17T02:12:48.111Z,55.07
2023-04-17T02:15:16.557Z,55.17
2023-04-17T02:17:47.195Z,55.80
2023-04-17T02:20:15.648Z,56.73
2023-04-17T02:22:43.754Z,58.10
2023-04-17T02:25:11.777Z,59.13
2023-04-17T02:27:39.854Z,60.30
2023-04-17T02:30:09.838Z,59.87
2023-04-17T02:32:38.031Z,61.20
2023-04-17T02:35:09.410Z,62.70
2023-04-17T02:37:37.817Z,63.47
2023-04-17T02:40:08.046Z,63.67
2023-04-17T02:42:36.195Z,65.90
2023-04-17T02:45:05.778Z,63.77
2023-04-17T02:47:33.971Z,65.73
2023-04-17T02:50:02.938Z,65.47
2023-04-17T02:52:37.718Z,65.80
2023-04-17T02:55:07.028Z,67.93
2023-04-17T02:57:35.559Z,68.80
2023-04-17T03:00:07.921Z,69.77
2023-04-17T03:02:38.229Z,70.70
2023-04-17T03:05:07.325Z,72.33
2023-04-17T03:07:37.590Z,72.30
2023-04-17T03:10:06.439Z,70.83
2023-04-17T03:12:34.635Z,71.83
2023-04-17T03:15:02.664Z,71.73
2023-04-17T03:17:31.139Z,72.60
2023-04-17T03:19:59.256Z,70.73
2023-04-17T03:22:27.370Z,71.20
2023-04-17T03:24:56.819Z,72.27
2023-04-17T03:27:27.203Z,70.57
2023-04-17T03:29:56.647Z,69.63
2023-04-17T03:32:26.644Z,70.03
2023-04-17T03:34:54.820Z,68.60
2023-04-17T03:37:23.109Z,65.70
2023-04-17T03:39:52.162Z,66.70
2023-04-17T03:42:21.688Z,66.50
2023-04-17T03:44:49.856Z,65.77
2023-04-17T03:47:18.047Z,66.23
2023-04-17T03:49:46.946Z,67.20
2023-04-17T03:52:15.438Z,67.30
2023-04-17T03:54:44.085Z,69.27
2023-04-17T03:57:13.469Z,71.43
2023-04-17T03:59:42.927Z,72.53
2023-04-17T04:02:11.271Z,75.27
2023-04-17T04:04:39.530Z,74.53
2023-04-17T04:07:12.660Z,75.40
2023-04-17T04:09:40.825Z,74.70
2023-04-17T04:12:09.552Z,74.70
2023-04-17T04:14:43.327Z,72.80
2023-04-17T04:17:12.292Z,71.37
2023-04-17T04:19:41.192Z,70.90
2023-04-17T04:22:10.372Z,70.47
2023-04-17T04:24:45.729Z,70.07
2023-04-17T04:27:18.211Z,69.00
2023-04-17T04:29:49.743Z,70.97
2023-04-17T04:32:21.087Z,70.03
2023-04-17T04:34:50.828Z,69.43
2023-04-17T04:37:22.130Z,70.00
2023-04-17T04:39:54.029Z,70.17
2023-04-17T04:42:24.006Z,70.60
2023-04-17T04:45:04.495Z,72.50
2023-04-17T04:47:33.925Z,69.33
2023-04-17T04:50:02.066Z,69.03
2023-04-17T04:52:30.138Z,69.03
2023-04-17T04:55:01.928Z,69.30
2023-04-17T04:57:31.976Z,69.40
2023-04-17T05:00:06.448Z,67.77
2023-04-17T05:02:39.830Z,68.67
2023-04-17T05:05:10.892Z,69.77
2023-04-17T05:07:38.998Z,70.40
2023-04-17T05:10:11.312Z,70.37
2023-04-17T05:12:44.552Z,70.57
2023-04-17T05:15:16.357Z,72.83
2023-04-17T05:17:45.236Z,73.37
2023-04-17T05:20:15.097Z,73.13
2023-04-17T05:22:54.787Z,73.67
2023-04-17T05:25:23.903Z,73.83
2023-04-17T05:27:52.854Z,73.87
2023-04-17T05:30:22.493Z,73.77
2023-04-17T05:32:56.676Z,73.80
2023-04-17T05:35:31.817Z,74.87
2023-04-17T05:38:00.628Z,74.43
2023-04-17T05:40:28.718Z,73.97
2023-04-17T05:42:56.886Z,74.47
2023-04-17T05:45:27.098Z,75.33
2023-04-17T05:47:55.229Z,75.90
2023-04-17T05:50:23.254Z,76.20
2023-04-17T05:52:51.454Z,76.00
2023-04-17T05:55:20.396Z,76.30
2023-04-17T05:57:52.320Z,78.50
2023-04-17T06:00:22.773Z,76.03
2023-04-17T06:02:58.063Z,76.60
2023-04-17T06:05:33.725Z,73.53
2023-04-17T06:08:01.950Z,71.43
2023-04-17T06:10:29.955Z,68.90
2023-04-17T06:12:58.007Z,66.40
2023-04-17T06:15:26.712Z,63.40
2023-04-17T06:17:54.904Z,64.67
2023-04-17T06:20:24.518Z,61.57
2023-04-17T06:22:52.583Z,58.70
2023-04-17T06:25:20.574Z,59.40
2023-04-17T06:27:48.631Z,59.23
2023-04-17T06:30:16.858Z,59.37
2023-04-17T06:32:51.375Z,59.37
2023-04-17T06:35:21.061Z,55.50
2023-04-17T06:37:55.327Z,55.87
2023-04-17T06:40:23.824Z,54.20
2023-04-17T06:42:52.986Z,51.93
2023-04-17T06:45:22.926Z,51.23
2023-04-17T06:47:51.032Z,49.63
2023-04-17T06:50:19.276Z,49.53
2023-04-17T06:52:47.429Z,48.90
2023-04-17T06:55:17.016Z,47.83
2023-04-17T06:57:45.022Z,49.33
2023-04-17T07:00:14.393Z,48.53
2023-04-17T07:02:42.416Z,46.40
2023-04-17T07:05:11.196Z,43.77
2023-04-17T07:07:39.888Z,42.23
2023-04-17T07:10:08.924Z,40.90
2023-04-17T07:12:38.349Z,39.20
2023-04-17T07:15:07.378Z,36.17
2023-04-17T07:17:35.545Z,37.13
2023-04-17T07:20:05.407Z,34.77
2023-04-17T07:22:34.332Z,35.03
2023-04-17T07:25:02.332Z,33.50
2023-04-17T07:27:30.451Z,33.67
2023-04-17T07:29:59.922Z,34.03
2023-04-17T07:32:28.628Z,34.90
2023-04-17T07:34:56.700Z,35.93
2023-04-17T07:37:24.788Z,35.93
2023-04-17T07:39:53.700Z,36.73
2023-04-17T07:42:21.868Z,38.13
2023-04-17T07:44:50.076Z,37.07
2023-04-17T07:47:19.667Z,37.50
2023-04-17T07:49:49.216Z,37.17
2023-04-17T07:52:18.187Z,36.67
2023-04-17T07:54:46.343Z,36.47
2023-04-17T07:57:15.260Z,37.67
2023-04-17T07:59:43.255Z,37.73
2023-04-17T08:02:11.798Z,37.43
2023-04-17T08:04:41.936Z,36.03
2023-04-17T08:07:11.347Z,35.50
2023-04-17T08:09:40.246Z,35.07
2023-04-17T08:12:09.199Z,35.87
2023-04-17T08:14:37.217Z,37.10
2023-04-17T08:17:07.627Z,38.27
2023-04-17T08:19:36.037Z,41.07
2023-04-17T08:22:07.402Z,44.33
2023-04-17T08:24:35.596Z,45.57
2023-04-17T08:27:03.687Z,47.03
2023-04-17T08:29:31.729Z,50.60
2023-04-17T08:32:13.360Z,53.03
2023-04-17T08:34:42.624Z,54.63
2023-04-17T08:37:11.982Z,55.70
2023-04-17T08:40:19.993Z,56.03
2023-04-17T08:42:54.039Z,59.97
2023-04-17T08:45:25.046Z,60.00
2023-04-17T08:47:53.334Z,60.77
2023-04-17T08:50:23.515Z,61.80
2023-04-17T08:52:53.715Z,64.13
2023-04-17T08:55:25.437Z,64.67
2023-04-17T08:58:01.069Z,66.57
2023-04-17T09:00:31.511Z,67.93
2023-04-17T09:03:01.245Z,67.30
2023-04-17T09:05:33.600Z,68.37
2023-04-17T09:08:11.663Z,69.30
2023-04-17T09:10:41.784Z,68.50
2023-04-17T09:13:10.619Z,66.90
2023-04-17T09:15:38.929Z,68.13
2023-04-17T09:18:07.281Z,65.23
2023-04-17T09:20:50.234Z,66.03
2023-04-17T09:23:20.027Z,65.60
2023-04-17T09:25:48.069Z,65.97
2023-04-17T09:28:16.695Z,62.97
2023-04-17T09:30:44.918Z,62.70
2023-04-17T09:33:13.072Z,60.30
2023-04-17T09:35:41.150Z,60.80
2023-04-17T09:38:09.252Z,58.83
2023-04-17T09:40:45.234Z,56.20
2023-04-17T09:43:13.354Z,52.50
2023-04-17T09:45:42.921Z,51.13
2023-04-17T09:48:13.314Z,49.13
2023-04-17T09:50:41.740Z,44.63
2023-04-17T09:53:10.116Z,42.33
2023-04-17T09:55:39.494Z,41.78
2023-04-17T09:58:09.065Z,38.70
2023-04-17T10:00:38.271Z,36.40
2023-04-17T10:03:08.338Z,33.85
2023-04-17T10:05:36.894Z,32.45
2023-04-17T10:08:05.730Z,30.13
2023-04-17T10:10:36.583Z,29.17
2023-04-17T10:13:08.075Z,27.92
2023-04-17T10:15:40.718Z,27.37
2023-04-17T10:18:23.679Z,27.80
2023-04-17T10:20:53.667Z,26.08
2023-04-17T10:23:32.960Z,24.23
2023-04-17T10:26:45.937Z,24.15
2023-04-17T10:29:14.081Z,22.63
2023-04-17T10:32:26.031Z,22.58
2023-04-17T10:34:57.212Z,21.08
2023-04-17T10:37:58.429Z,20.30
2023-04-17T10:40:33.893Z,21.08
2023-04-17T10:43:08.015Z,19.50
2023-04-17T10:45:59.861Z,17.90
2023-04-17T10:48:31.199Z,18.83
2023-04-17T10:51:01.778Z,17.70
2023-04-17T10:53:44.086Z,18.23
2023-04-17T10:56:13.648Z,17.98
2023-04-17T10:58:57.968Z,18.45
2023-04-17T11:01:28.912Z,18.30
2023-04-17T11:03:58.163Z,18.48
2023-04-17T11:06:29.985Z,16.55
2023-04-17T11:08:58.904Z,16.58
2023-04-17T11:11:40.390Z,16.00
2023-04-17T11:14:14.405Z,15.23
2023-04-17T11:16:44.360Z,17.27
2023-04-17T11:19:14.757Z,16.67
2023-04-17T11:21:45.229Z,17.35
2023-04-17T11:24:13.314Z,16.45
2023-04-17T11:26:45.509Z,17.75
2023-04-17T11:29:16.813Z,17.58
2023-04-17T11:31:46.037Z,18.92
2023-04-17T11:34:15.686Z,19.20
2023-04-17T11:36:51.589Z,19.08
2023-04-17T11:39:20.222Z,18.90
2023-04-17T11:41:48.582Z,18.55
2023-04-17T11:44:20.195Z,19.13
2023-04-17T11:46:51.062Z,18.73
2023-04-17T11:49:25.629Z,18.65
2023-04-17T11:51:56.770Z,17.38
2023-04-17T11:54:28.729Z,17.73
2023-04-17T11:57:01.780Z,19.17
2023-04-17T11:59:34.358Z,18.90
2023-04-17T12:02:03.403Z,20.63
2023-04-17T12:04:34.381Z,20.80
2023-04-17T12:07:05.755Z,20.80
2023-04-17T12:09:34.309Z,20.20
2023-04-17T12:12:03.872Z,20.37
2023-04-17T12:14:32.277Z,19.53
2023-04-17T12:17:00.689Z,17.93
2023-04-17T12:19:29.936Z,18.10
2023-04-17T12:21:59.321Z,18.70
2023-04-17T12:24:28.836Z,18.80
2023-04-17T12:26:58.711Z,18.60
2023-04-17T12:29:42.314Z,18.73
2023-04-17T12:32:12.674Z,20.63
2023-04-17T12:34:41.123Z,20.77
2023-04-17T12:37:09.431Z,22.10
2023-04-17T12:39:38.765Z,22.17
2023-04-17T12:42:06.985Z,22.73
2023-04-17T12:44:35.034Z,23.00
2023-04-17T12:47:03.473Z,23.63
2023-04-17T12:49:31.528Z,23.70
2023-04-17T12:52:02.410Z,25.00
2023-04-17T12:54:31.483Z,24.93
2023-04-17T12:57:01.592Z,24.70
2023-04-17T12:59:29.702Z,25.00
2023-04-17T13:01:58.024Z,24.30
2023-04-17T13:04:26.321Z,24.33
2023-04-17T13:06:54.549Z,25.03
2023-04-17T13:09:22.617Z,25.20
2023-04-17T13:11:50.949Z,26.37
2023-04-17T13:14:20.780Z,28.37
2023-04-17T13:16:50.767Z,28.97
2023-04-17T13:19:18.974Z,28.27
2023-04-17T13:21:47.009Z,29.37
2023-04-17T13:24:15.698Z,31.37
2023-04-17T13:26:43.795Z,33.20
2023-04-17T13:29:12.580Z,32.63
2023-04-17T13:31:42.273Z,31.37
2023-04-17T13:34:11.798Z,30.90
2023-04-17T13:36:39.806Z,30.93
2023-04-17T13:39:08.634Z,31.30
2023-04-17T13:41:39.709Z,31.43
2023-04-17T13:44:08.262Z,31.50
2023-04-17T13:46:36.693Z,31.43
2023-04-17T13:49:06.259Z,31.50
2023-04-17T13:51:34.331Z,30.63
2023-04-17T13:54:02.487Z,30.37
2023-04-17T13:56:30.670Z,30.10
2023-04-17T13:58:59.563Z,29.77
2023-04-17T14:01:27.719Z,29.70
2023-04-17T14:03:55.997Z,28.67
2023-04-17T14:06:28.176Z,29.17
2023-04-17T14:08:56.757Z,28.00
2023-04-17T14:11:24.821Z,26.53
2023-04-17T14:13:52.873Z,24.67
2023-04-17T14:16:21.392Z,25.70
2023-04-17T14:18:50.212Z,25.80
2023-04-17T14:21:19.106Z,24.23
2023-04-17T14:23:48.946Z,24.87
2023-04-17T14:26:17.082Z,25.50
2023-04-17T14:28:45.061Z,25.53
2023-04-17T14:31:13.206Z,26.50
2023-04-17T14:33:41.257Z,27.83
2023-04-17T14:36:10.127Z,28.33
2023-04-17T14:38:38.983Z,29.20
2023-04-17T14:41:08.712Z,30.23
2023-04-17T14:43:36.858Z,32.37
2023-04-17T14:46:05.078Z,33.90
2023-04-17T14:48:38.408Z,34.83
2023-04-17T14:51:17.003Z,36.80
2023-04-17T14:53:45.116Z,38.60
2023-04-17T14:56:14.684Z,41.70
2023-04-17T14:58:42.744Z,43.23
2023-04-17T15:01:11.567Z,45.80
2023-04-17T15:03:39.825Z,47.83
2023-04-17T15:06:08.926Z,48.40
2023-04-17T15:08:36.962Z,50.53
2023-04-17T15:11:05.196Z,51.53
2023-04-17T15:13:34.596Z,53.20
2023-04-17T15:16:02.841Z,54.47
2023-04-17T15:18:31.037Z,55.73
2023-04-17T15:20:59.345Z,56.67
2023-04-17T15:23:28.758Z,58.37
2023-04-17T15:25:57.683Z,60.07
2023-04-17T15:28:26.071Z,61.30
2023-04-17T15:30:56.946Z,63.00
2023-04-17T15:33:25.038Z,64.00
2023-04-17T15:35:56.614Z,66.00
2023-04-17T15:38:25.116Z,67.50
2023-04-17T15:40:53.270Z,67.80
2023-04-17T15:43:22.051Z,68.13
2023-04-17T15:45:50.507Z,68.10
2023-04-17T15:48:20.072Z,66.33
2023-04-17T15:50:48.160Z,64.00
2023-04-17T15:53:16.277Z,63.03
2023-04-17T15:55:44.322Z,63.37
2023-04-17T15:58:12.446Z,63.57
2023-04-17T16:00:40.490Z,62.40
2023-04-17T16:03:08.741Z,62.27
2023-04-17T16:05:38.313Z,60.43
2023-04-17T16:08:06.442Z,59.83
2023-04-17T16:10:35.256Z,57.73
2023-04-17T16:13:03.369Z,56.87
2023-04-17T16:15:31.662Z,56.23
2023-04-17T16:18:01.394Z,55.63
2023-04-17T16:20:30.729Z,54.50
2023-04-17T16:23:00.191Z,54.07
2023-04-17T16:25:28.376Z,53.90
2023-04-17T16:27:56.405Z,54.97
2023-04-17T16:30:24.621Z,54.73
2023-04-17T16:32:52.702Z,55.07
2023-04-17T16:35:20.826Z,54.83
2023-04-17T16:37:48.835Z,54.43
2023-04-17T16:40:18.550Z,54.00
2023-04-17T16:42:51.203Z,53.73
2023-04-17T16:45:23.240Z,54.57
2023-04-17T16:47:51.378Z,55.07
2023-04-17T16:50:19.727Z,54.83
2023-04-17T16:52:51.962Z,55.57
2023-04-17T16:55:25.207Z,55.20
2023-04-17T16:57:54.662Z,55.73
2023-04-17T17:00:23.482Z,56.90
2023-04-17T17:02:52.198Z,57.10
2023-04-17T17:05:20.674Z,57.20
2023-04-17T17:07:49.065Z,57.53
2023-04-17T17:10:17.167Z,56.70
2023-04-17T17:12:46.731Z,56.67
2023-04-17T17:15:14.798Z,57.27
2023-04-17T17:17:43.153Z,58.23
2023-04-17T17:20:11.767Z,57.97
2023-04-17T17:22:39.804Z,58.97
2023-04-17T17:25:08.929Z,59.33
2023-04-17T17:27:37.005Z,60.67
2023-04-17T17:30:07.483Z,60.10
2023-04-17T17:32:35.840Z,61.17
2023-04-17T17:35:03.875Z,61.43
2023-04-17T17:37:32.058Z,62.20
2023-04-17T17:40:00.122Z,63.40
2023-04-17T17:42:28.194Z,64.27
2023-04-17T17:44:56.516Z,66.03
2023-04-17T17:47:26.102Z,65.47
2023-04-17T17:49:54.121Z,65.97
2023-04-17T17:52:22.296Z,66.13
2023-04-17T17:54:50.282Z,66.83
2023-04-17T17:57:18.407Z,67.10
2023-04-17T17:59:46.494Z,67.83
2023-04-17T18:02:14.774Z,67.03
2023-04-17T18:04:44.562Z,68.53
2023-04-17T18:07:12.841Z,68.53
2023-04-17T18:09:40.876Z,68.37
2023-04-17T18:12:09.152Z,68.23
2023-04-17T18:14:37.287Z,69.27
2023-04-17T18:17:05.416Z,66.63
2023-04-17T18:19:34.391Z,66.80
2023-04-17T18:22:03.865Z,65.83
2023-04-17T18:24:31.975Z,66.40
2023-04-17T18:27:00.327Z,66.67
2023-04-17T18:29:28.309Z,66.87
2023-04-17T18:31:56.445Z,67.20
2023-04-17T18:34:24.596Z,67.10
2023-04-17T18:36:53.028Z,66.50
2023-04-17T18:39:22.433Z,66.27
2023-04-17T18:41:50.500Z,65.60
2023-04-17T18:44:18.691Z,66.20
2023-04-17T18:46:47.864Z,66.00
2023-04-17T18:49:16.158Z,66.47
2023-04-17T18:51:47.815Z,66.43
2023-04-17T18:54:16.384Z,66.07
2023-04-17T18:56:46.117Z,67.50
2023-04-17T18:59:14.641Z,68.03
2023-04-17T19:01:43.194Z,67.60
2023-04-17T19:04:11.498Z,68.47
2023-04-17T19:06:39.682Z,68.13
2023-04-17T19:09:07.830Z,68.57
2023-04-17T19:11:35.835Z,69.13
2023-04-17T19:14:05.399Z,71.57
2023-04-17T19:16:33.452Z,69.87
2023-04-17T19:19:01.594Z,70.07
2023-04-17T19:21:31.743Z,70.47
2023-04-17T19:24:00.037Z,70.97
2023-04-17T19:26:28.067Z,70.70
2023-04-17T19:28:56.416Z,70.73
2023-04-17T19:31:25.839Z,70.57
2023-04-17T19:33:56.206Z,70.93
2023-04-17T19:36:24.675Z,70.23
2023-04-17T19:38:54.979Z,70.33
2023-04-17T19:41:23.047Z,71.93
2023-04-17T19:43:55.476Z,70.77
2023-04-17T19:46:27.517Z,72.60
2023-04-17T19:48:55.722Z,71.80
2023-04-17T19:51:23.700Z,72.30
2023-04-17T19:53:53.538Z,71.40
2023-04-17T19:56:21.711Z,71.40
2023-04-17T19:58:49.812Z,72.50
2023-04-17T20:01:18.123Z,71.83
2023-04-17T20:03:47.759Z,72.90
2023-04-17T20:06:16.049Z,72.03
2023-04-17T20:08:44.113Z,72.33
2023-04-17T20:11:12.916Z,73.20
2023-04-17T20:13:40.948Z,72.47
2023-04-17T20:16:09.263Z,72.67
2023-04-17T20:18:38.036Z,73.03
2023-04-17T20:21:07.532Z,72.10
2023-04-17T20:23:35.596Z,73.27
2023-04-17T20:26:03.886Z,72.60
2023-04-17T20:28:31.926Z,73.10
2023-04-17T20:31:00.078Z,73.87
2023-04-17T20:33:28.402Z,74.97
2023-04-17T20:35:56.557Z,73.80
2023-04-17T20:38:25.990Z,74.33
2023-04-17T20:40:54.094Z,74.70
2023-04-17T20:43:22.091Z,75.20
2023-04-17T20:45:50.616Z,74.90
2023-04-17T20:48:19.950Z,75.57
2023-04-17T20:50:48.076Z,74.70
2023-04-17T20:53:16.045Z,75.20
2023-04-17T20:55:47.034Z,74.57
2023-04-17T20:58:15.159Z,75.13
2023-04-17T21:00:54.408Z,75.03
2023-04-17T21:03:30.135Z,75.23
2023-04-17T21:05:58.477Z,75.57
2023-04-17T21:08:26.778Z,75.40
2023-04-17T21:10:56.405Z,75.50
2023-04-17T21:13:24.690Z,76.07
2023-04-17T21:15:52.788Z,75.30
2023-04-17T21:18:20.916Z,76.23
2023-04-17T21:20:48.975Z,76.03
2023-04-17T21:23:17.210Z,75.90
2023-04-17T21:25:45.198Z,76.07
2023-04-17T21:28:14.825Z,76.43
2023-04-17T21:30:42.865Z,76.43
2023-04-17T21:33:10.972Z,76.53
2023-04-17T21:35:39.315Z,76.80
2023-04-17T21:38:07.409Z,75.77
2023-04-17T21:40:37.087Z,74.70
2023-04-17T21:43:05.756Z,75.90
2023-04-17T21:45:35.106Z,74.40
2023-04-17T21:48:03.465Z,75.30
2023-04-17T21:50:31.850Z,76.13
2023-04-17T21:53:00.055Z,76.20
2023-04-17T21:55:28.376Z,76.10
2023-04-17T21:57:56.472Z,76.00
2023-04-17T22:00:24.537Z,76.87
2023-04-17T22:02:54.467Z,76.10
2023-04-17T22:05:22.711Z,76.60
2023-04-17T22:07:55.078Z,77.17
2023-04-17T22:10:24.266Z,78.07
2023-04-17T22:12:52.523Z,77.17
2023-04-17T22:15:20.640Z,77.47
2023-04-17T22:17:48.801Z,77.97
2023-04-17T22:20:18.344Z,78.30
2023-04-17T22:22:47.501Z,78.33
2023-04-17T22:25:15.651Z,78.57
2023-04-17T22:27:43.753Z,79.20
2023-04-17T22:30:12.194Z,80.10
2023-04-17T22:32:40.299Z,80.10
2023-04-17T22:35:09.858Z,79.83
2023-04-17T22:37:39.265Z,81.17
2023-04-17T22:40:09.009Z,79.90
2023-04-17T22:42:55.333Z,80.93
2023-04-17T22:45:47.821Z,81.73
2023-04-17T22:48:16.029Z,82.77
2023-04-17T22:50:45.551Z,82.67
2023-04-17T22:53:15.062Z,82.70
2023-04-17T22:55:43.238Z,82.83
2023-04-17T22:58:11.571Z,83.67
2023-04-17T23:00:39.711Z,83.00
2023-04-17T23:03:07.936Z,83.93
2023-04-17T23:05:36.463Z,84.27
2023-04-17T23:08:04.495Z,83.80
2023-04-17T23:11:27.721Z,84.63
2023-04-17T23:14:20.544Z,86.60
2023-04-17T23:16:48.686Z,85.30
2023-04-17T23:19:16.745Z,85.17
2023-04-17T23:21:44.803Z,85.10
2023-04-17T23:24:13.104Z,85.57
2023-04-17T23:26:41.927Z,85.20
2023-04-17T23:29:09.924Z,85.60
2023-04-17T23:31:39.508Z,84.53
2023-04-17T23:34:07.584Z,84.97
2023-04-17T23:36:35.641Z,84.57
2023-04-17T23:39:05.139Z,84.33
2023-04-17T23:41:33.809Z,83.33
2023-04-17T23:44:01.863Z,83.90
2023-04-17T23:46:30.003Z,83.20
2023-04-17T23:48:59.351Z,83.90
2023-04-17T23:51:27.712Z,83.03
2023-04-17T23:53:56.078Z,82.57
2023-04-17T23:56:24.094Z,83.57
2023-04-17T23:58:52.050Z,82.83
